createdAt,value
2018-12-19T00:01:24.355Z,15.60
2018-12-19T00:03:51.805Z,15.33
2018-12-19T00:06:19.253Z,15.10
2018-12-19T00:08:46.692Z,13.53
2018-12-19T00:11:14.136Z,17.12
2018-12-19T00:13:41.584Z,16.63
2018-12-19T00:16:09.029Z,16.17
2018-12-19T00:18:36.462Z,17.50
2018-12-19T00:21:03.914Z,17.63
2018-12-19T00:23:31.410Z,16.83
2018-12-19T00:25:58.862Z,15.38
2018-12-19T00:28:26.306Z,16.47
2018-12-19T00:30:53.831Z,14.68
2018-12-19T00:33:21.266Z,16.57
2018-12-19T00:35:48.709Z,15.70
2018-12-19T00:38:16.171Z,16.83
2018-12-19T00:40:43.625Z,14.95
2018-12-19T00:43:11.052Z,15.47
2018-12-19T00:45:38.505Z,15.85
2018-12-19T00:48:05.946Z,15.17
2018-12-19T00:50:33.397Z,14.33
2018-12-19T00:53:00.832Z,14.03
2018-12-19T00:55:28.281Z,13.08
2018-12-19T00:57:55.722Z,13.70
2018-12-19T01:00:23.165Z,14.00
2018-12-19T01:02:50.605Z,13.67
2018-12-19T01:05:18.055Z,12.85
2018-12-19T01:07:45.490Z,13.00
2018-12-19T01:10:12.938Z,12.10
2018-12-19T01:12:41.503Z,12.17
2018-12-19T01:15:08.988Z,11.85
2018-12-19T01:17:36.424Z,12.23
2018-12-19T01:20:03.938Z,11.13
2018-12-19T01:22:31.372Z,12.37
2018-12-19T01:24:58.892Z,12.37
2018-12-19T01:27:26.328Z,11.78
2018-12-19T01:29:53.773Z,12.00
2018-12-19T01:32:21.212Z,12.23
2018-12-19T01:34:48.660Z,12.73
2018-12-19T01:37:16.094Z,11.35
2018-12-19T01:39:43.545Z,9.77
2018-12-19T01:42:11.706Z,12.15
2018-12-19T01:44:39.156Z,11.08
2018-12-19T01:47:06.588Z,11.03
2018-12-19T01:49:34.039Z,12.20
2018-12-19T01:52:01.473Z,11.23
2018-12-19T01:54:28.933Z,11.97
2018-12-19T01:56:56.374Z,11.17
2018-12-19T01:59:23.819Z,11.97
2018-12-19T02:01:51.268Z,11.63
2018-12-19T02:04:18.713Z,13.23
2018-12-19T02:06:46.152Z,10.75
2018-12-19T02:09:13.603Z,11.47
2018-12-19T02:11:41.037Z,11.55
2018-12-19T02:14:08.481Z,11.43
2018-12-19T02:16:35.912Z,11.15
2018-12-19T02:19:03.361Z,11.80
2018-12-19T02:21:30.813Z,11.28
2018-12-19T02:23:58.262Z,10.47
2018-12-19T02:26:25.708Z,11.35
2018-12-19T02:28:53.137Z,10.37
2018-12-19T02:31:20.594Z,10.83
2018-12-19T02:33:48.024Z,11.43
2018-12-19T02:36:15.470Z,10.48
2018-12-19T02:38:42.954Z,10.30
2018-12-19T02:41:10.404Z,10.88
2018-12-19T02:43:37.846Z,9.60
2018-12-19T02:46:05.289Z,10.63
2018-12-19T02:48:32.724Z,7.90
2018-12-19T02:51:00.168Z,10.43
2018-12-19T02:53:27.600Z,9.40
2018-12-19T02:55:55.045Z,11.12
2018-12-19T02:58:22.482Z,10.10
2018-12-19T03:00:49.926Z,9.87
2018-12-19T03:03:18.126Z,9.27
2018-12-19T03:05:45.566Z,9.53
2018-12-19T03:08:13.073Z,10.93
2018-12-19T03:10:40.508Z,9.20
2018-12-19T03:13:07.941Z,10.87
2018-12-19T03:15:35.387Z,11.37
2018-12-19T03:18:02.830Z,10.20
2018-12-19T03:20:30.275Z,10.63
2018-12-19T03:22:57.714Z,10.33
2018-12-19T03:25:25.229Z,9.78
2018-12-19T03:27:52.665Z,8.70
2018-12-19T03:30:20.102Z,8.90
2018-12-19T03:32:47.540Z,9.60
2018-12-19T03:35:15.299Z,10.18
2018-12-19T03:37:42.733Z,10.00
2018-12-19T03:40:10.183Z,9.60
2018-12-19T03:42:37.618Z,6.80
2018-12-19T03:45:05.130Z,9.23
2018-12-19T03:47:32.565Z,9.20
2018-12-19T03:50:00.263Z,9.43
2018-12-19T03:52:27.707Z,9.03
2018-12-19T03:54:55.141Z,8.33
2018-12-19T03:57:22.832Z,7.97
2018-12-19T03:59:50.298Z,8.68
2018-12-19T04:02:17.750Z,9.10
2018-12-19T04:04:45.185Z,9.10
2018-12-19T04:07:12.627Z,9.03
2018-12-19T04:09:40.113Z,9.15
2018-12-19T04:12:07.565Z,9.93
2018-12-19T04:14:35.015Z,8.05
2018-12-19T04:17:02.587Z,9.80
2018-12-19T04:19:30.110Z,9.77
2018-12-19T04:21:57.606Z,7.50
2018-12-19T04:24:25.060Z,8.80
2018-12-19T04:26:52.553Z,7.93
2018-12-19T04:29:19.985Z,8.20
2018-12-19T04:31:47.424Z,8.53
2018-12-19T04:34:14.937Z,8.57
2018-12-19T04:36:42.378Z,9.15
2018-12-19T04:39:09.817Z,8.40
2018-12-19T04:41:37.265Z,8.53
2018-12-19T04:44:04.692Z,9.30
2018-12-19T04:46:32.184Z,7.55
2018-12-19T04:48:59.623Z,8.37
2018-12-19T04:51:27.062Z,8.65
2018-12-19T04:53:55.370Z,8.50
2018-12-19T04:56:22.813Z,8.57
2018-12-19T04:58:50.248Z,8.85
2018-12-19T05:01:17.705Z,8.73
2018-12-19T05:03:45.135Z,8.10
2018-12-19T05:06:12.570Z,8.70
2018-12-19T05:08:40.000Z,8.35
2018-12-19T05:11:07.449Z,8.90
2018-12-19T05:13:34.882Z,8.75
2018-12-19T05:16:02.328Z,10.20
2018-12-19T05:18:29.760Z,9.18
2018-12-19T05:20:57.196Z,9.43
2018-12-19T05:23:24.642Z,9.10
2018-12-19T05:25:52.077Z,8.73
2018-12-19T05:28:19.513Z,10.35
2018-12-19T05:30:46.949Z,9.30
2018-12-19T05:33:14.387Z,10.28
2018-12-19T05:35:41.832Z,9.43
2018-12-19T05:38:09.261Z,8.98
2018-12-19T05:40:36.705Z,9.37
2018-12-19T05:43:04.148Z,9.63
2018-12-19T05:45:31.576Z,9.67
2018-12-19T05:47:59.022Z,10.53
2018-12-19T05:50:28.856Z,9.50
2018-12-19T05:52:56.292Z,9.87
2018-12-19T05:55:23.756Z,9.18
2018-12-19T05:57:51.492Z,9.33
2018-12-19T06:00:19.180Z,9.97
2018-12-19T06:02:46.629Z,10.38
2018-12-19T06:05:14.070Z,9.77
2018-12-19T06:07:41.603Z,10.03
2018-12-19T06:10:09.054Z,10.87
2018-12-19T06:12:36.581Z,10.08
2018-12-19T06:15:04.021Z,10.23
2018-12-19T06:17:31.518Z,10.93
2018-12-19T06:19:58.953Z,10.53
2018-12-19T06:22:26.481Z,11.50
2018-12-19T06:24:53.920Z,11.63
2018-12-19T06:27:21.365Z,10.57
2018-12-19T06:29:48.809Z,10.68
2018-12-19T06:32:16.257Z,10.20
2018-12-19T06:34:43.710Z,10.78
2018-12-19T06:37:11.164Z,9.53
2018-12-19T06:39:38.614Z,9.30
2018-12-19T06:42:06.061Z,11.67
2018-12-19T06:44:33.500Z,10.30
2018-12-19T06:47:00.944Z,9.60
2018-12-19T06:49:28.393Z,10.75
2018-12-19T06:51:55.842Z,10.70
2018-12-19T06:54:23.281Z,11.33
2018-12-19T06:56:50.723Z,11.17
2018-12-19T06:59:18.162Z,10.55
2018-12-19T07:01:45.596Z,10.90
2018-12-19T07:04:13.045Z,10.40
2018-12-19T07:06:40.492Z,11.63
2018-12-19T07:09:08.691Z,10.25
2018-12-19T07:11:36.146Z,10.60
2018-12-19T07:14:03.580Z,9.80
2018-12-19T07:16:31.024Z,11.07
2018-12-19T07:18:58.471Z,9.98
2018-12-19T07:21:26.083Z,11.03
2018-12-19T07:23:53.637Z,10.87
2018-12-19T07:26:21.090Z,10.80
2018-12-19T07:28:48.536Z,11.20
2018-12-19T07:31:15.980Z,11.00
2018-12-19T07:33:43.441Z,11.60
2018-12-19T07:36:10.952Z,10.60
2018-12-19T07:38:38.401Z,11.17
2018-12-19T07:41:05.829Z,12.53
2018-12-19T07:43:33.301Z,11.43
2018-12-19T07:46:00.782Z,11.28
2018-12-19T07:48:28.576Z,9.37
2018-12-19T07:50:56.008Z,10.87
2018-12-19T07:53:23.456Z,12.00
2018-12-19T07:55:51.154Z,10.73
2018-12-19T07:58:18.618Z,10.90
2018-12-19T08:00:46.061Z,11.47
2018-12-19T08:03:13.511Z,11.13
2018-12-19T08:05:40.964Z,10.93
2018-12-19T08:08:08.418Z,11.70
2018-12-19T08:10:35.856Z,11.68
2018-12-19T08:13:03.308Z,11.33
2018-12-19T08:15:30.759Z,11.03
2018-12-19T08:17:58.221Z,13.07
2018-12-19T08:20:25.661Z,12.85
2018-12-19T08:22:53.112Z,12.07
2018-12-19T08:25:20.560Z,12.23
2018-12-19T08:27:48.039Z,12.00
2018-12-19T08:30:15.477Z,11.85
2018-12-19T08:32:43.030Z,10.87
2018-12-19T08:35:10.482Z,11.03
2018-12-19T08:37:37.932Z,8.20
2018-12-19T08:40:05.382Z,11.45
2018-12-19T08:42:32.820Z,10.70
2018-12-19T08:45:00.260Z,10.30
2018-12-19T08:47:27.705Z,10.90
2018-12-19T08:49:55.160Z,10.72
2018-12-19T08:52:22.610Z,8.93
2018-12-19T08:54:50.054Z,10.88
2018-12-19T08:57:17.501Z,10.30
2018-12-19T08:59:44.936Z,10.60
2018-12-19T09:02:12.409Z,10.13
2018-12-19T09:04:39.917Z,10.13
2018-12-19T09:07:07.357Z,10.83
2018-12-19T09:09:34.805Z,9.98
2018-12-19T09:12:02.288Z,10.30
2018-12-19T09:14:29.743Z,10.40
2018-12-19T09:16:57.199Z,9.30
2018-12-19T09:19:24.658Z,10.65
2018-12-19T09:21:52.101Z,11.27
2018-12-19T09:24:19.557Z,10.50
2018-12-19T09:26:47.066Z,10.70
2018-12-19T09:29:14.535Z,10.05
2018-12-19T09:31:41.960Z,11.27
2018-12-19T09:34:09.418Z,10.20
2018-12-19T09:36:36.933Z,11.07
2018-12-19T09:39:04.525Z,10.38
2018-12-19T09:41:31.963Z,11.20
2018-12-19T09:43:59.470Z,11.63
2018-12-19T09:46:26.904Z,11.10
2018-12-19T09:48:54.349Z,10.70
2018-12-19T09:51:21.806Z,11.03
2018-12-19T09:53:49.254Z,10.13
2018-12-19T09:56:16.702Z,9.30
2018-12-19T09:58:44.163Z,10.27
2018-12-19T10:01:11.608Z,12.13
2018-12-19T10:03:39.060Z,10.57
2018-12-19T10:06:06.502Z,10.48
2018-12-19T10:08:33.947Z,10.87
2018-12-19T10:11:01.484Z,10.75
2018-12-19T10:13:28.942Z,10.93
2018-12-19T10:15:56.376Z,10.35
2018-12-19T10:18:23.834Z,10.13
2018-12-19T10:20:51.276Z,10.50
2018-12-19T10:23:18.720Z,9.53
2018-12-19T10:25:48.142Z,9.93
2018-12-19T10:28:19.857Z,10.93
2018-12-19T10:30:47.635Z,10.87
2018-12-19T10:33:15.070Z,11.00
2018-12-19T10:35:42.515Z,11.73
2018-12-19T10:38:09.985Z,10.83
2018-12-19T10:40:37.436Z,11.07
2018-12-19T10:43:04.880Z,10.60
2018-12-19T10:45:32.322Z,11.60
2018-12-19T10:47:59.774Z,10.50
2018-12-19T10:50:27.221Z,10.75
2018-12-19T10:52:54.653Z,10.27
2018-12-19T10:55:22.104Z,9.55
2018-12-19T10:57:49.637Z,10.50
2018-12-19T11:00:22.369Z,10.53
2018-12-19T11:02:49.813Z,10.53
2018-12-19T11:05:17.280Z,10.87
2018-12-19T11:07:44.708Z,9.90
2018-12-19T11:10:12.200Z,10.98
2018-12-19T11:12:39.652Z,10.83
2018-12-19T11:15:09.053Z,11.08
2018-12-19T11:17:36.492Z,10.77
2018-12-19T11:20:03.992Z,11.28
2018-12-19T11:22:31.457Z,10.37
2018-12-19T11:24:58.893Z,10.00
2018-12-19T11:27:26.344Z,11.30
2018-12-19T11:29:53.792Z,12.60
2018-12-19T11:32:21.258Z,11.97
2018-12-19T11:34:48.712Z,11.60
2018-12-19T11:37:16.183Z,11.73
2018-12-19T11:39:43.697Z,11.15
2018-12-19T11:42:11.134Z,13.40
2018-12-19T11:44:38.602Z,11.43
2018-12-19T11:47:06.043Z,11.57
2018-12-19T11:49:33.500Z,13.20
2018-12-19T11:52:00.957Z,12.60
2018-12-19T11:54:28.406Z,13.32
2018-12-19T11:56:55.854Z,13.33
2018-12-19T11:59:23.326Z,12.80
2018-12-19T12:01:50.779Z,14.20
2018-12-19T12:04:18.234Z,14.50
2018-12-19T12:06:45.679Z,11.67
2018-12-19T12:09:13.126Z,13.43
2018-12-19T12:11:45.554Z,13.47
2018-12-19T12:14:10.000Z,13.70
2018-12-19T12:16:37.445Z,13.90
2018-12-19T12:19:04.925Z,12.33
2018-12-19T12:21:32.376Z,13.37
2018-12-19T12:23:59.906Z,13.77
2018-12-19T12:26:27.354Z,13.63
2018-12-19T12:28:54.801Z,14.43
2018-12-19T12:31:22.243Z,12.50
2018-12-19T12:33:50.773Z,13.33
2018-12-19T12:36:18.376Z,12.68
2018-12-19T12:38:45.837Z,13.90
2018-12-19T12:41:13.298Z,14.47
2018-12-19T12:43:40.736Z,13.03
2018-12-19T12:46:08.184Z,13.17
2018-12-19T12:48:35.645Z,11.70
2018-12-19T12:51:03.108Z,12.97
2018-12-19T12:53:30.546Z,13.70
2018-12-19T12:55:57.989Z,13.27
2018-12-19T12:58:25.420Z,13.68
2018-12-19T13:00:52.866Z,13.37
2018-12-19T13:03:20.305Z,13.35
2018-12-19T13:05:47.745Z,12.70
2018-12-19T13:08:15.205Z,13.13
2018-12-19T13:10:42.652Z,12.90
2018-12-19T13:13:10.113Z,12.53
2018-12-19T13:15:43.746Z,13.40
2018-12-19T13:18:11.185Z,13.20
2018-12-19T13:20:38.640Z,11.78
2018-12-19T13:23:06.076Z,13.10
2018-12-19T13:25:33.580Z,13.15
2018-12-19T13:28:01.288Z,12.70
2018-12-19T13:30:28.721Z,13.37
2018-12-19T13:32:56.160Z,12.43
2018-12-19T13:35:23.592Z,12.80
2018-12-19T13:37:51.053Z,11.60
2018-12-19T13:40:18.486Z,13.60
2018-12-19T13:42:45.925Z,13.53
2018-12-19T13:45:13.384Z,13.27
2018-12-19T13:47:40.825Z,13.48
2018-12-19T13:50:08.268Z,14.23
2018-12-19T13:52:35.721Z,13.97
2018-12-19T13:55:03.159Z,13.97
2018-12-19T13:57:30.601Z,12.80
2018-12-19T13:59:58.037Z,13.47
2018-12-19T14:02:25.491Z,12.70
2018-12-19T14:04:52.932Z,14.10
2018-12-19T14:07:21.340Z,12.73
2018-12-19T14:09:48.870Z,14.93
2018-12-19T14:12:16.324Z,14.37
2018-12-19T14:14:43.769Z,15.55
2018-12-19T14:17:11.206Z,15.20
2018-12-19T14:19:38.672Z,13.13
2018-12-19T14:22:06.121Z,14.90
2018-12-19T14:24:33.577Z,14.35
2018-12-19T14:27:01.017Z,15.57
2018-12-19T14:29:28.520Z,14.33
2018-12-19T14:31:55.977Z,15.43
2018-12-19T14:34:23.413Z,14.33
2018-12-19T14:36:50.915Z,14.93
2018-12-19T14:39:18.382Z,16.12
2018-12-19T14:41:45.823Z,14.37
2018-12-19T14:44:13.523Z,14.85
2018-12-19T14:46:40.936Z,15.53
2018-12-19T14:49:13.760Z,14.17
2018-12-19T14:51:37.796Z,15.73
2018-12-19T14:54:05.227Z,15.23
2018-12-19T14:56:32.677Z,15.83
2018-12-19T14:59:00.120Z,14.53
2018-12-19T15:01:27.564Z,16.07
2018-12-19T15:03:55.014Z,15.00
2018-12-19T15:06:22.476Z,14.30
2018-12-19T15:08:49.995Z,14.27
2018-12-19T15:11:17.432Z,14.83
2018-12-19T15:13:44.876Z,15.70
2018-12-19T15:16:12.316Z,16.57
2018-12-19T15:18:39.825Z,15.60
2018-12-19T15:21:07.285Z,16.12
2018-12-19T15:23:34.757Z,16.70
2018-12-19T15:26:02.244Z,16.12
2018-12-19T15:28:29.682Z,16.43
2018-12-19T15:30:57.124Z,17.62
2018-12-19T15:33:24.553Z,16.87
2018-12-19T15:35:52.047Z,16.40
2018-12-19T15:38:19.480Z,17.07
2018-12-19T15:40:46.918Z,15.90
2018-12-19T15:43:14.398Z,17.20
2018-12-19T15:45:41.839Z,17.65
2018-12-19T15:48:09.279Z,16.67
2018-12-19T15:50:36.711Z,17.40
2018-12-19T15:53:04.165Z,17.97
2018-12-19T15:55:31.622Z,18.82
2018-12-19T15:57:59.053Z,18.23
2018-12-19T16:00:26.520Z,17.87
2018-12-19T16:02:53.975Z,17.23
2018-12-19T16:05:21.477Z,18.67
2018-12-19T16:07:48.912Z,18.10
2018-12-19T16:10:16.808Z,18.23
2018-12-19T16:12:44.257Z,17.32
2018-12-19T16:15:11.698Z,18.10
2018-12-19T16:17:39.140Z,19.25
2018-12-19T16:20:06.583Z,18.53
2018-12-19T16:22:34.043Z,18.83
2018-12-19T16:25:01.481Z,20.07
2018-12-19T16:27:28.932Z,17.95
2018-12-19T16:29:56.376Z,18.00
2018-12-19T16:32:23.813Z,18.40
2018-12-19T16:34:51.256Z,19.57
2018-12-19T16:37:18.692Z,17.80
2018-12-19T16:39:46.128Z,18.33
2018-12-19T16:42:13.578Z,20.08
2018-12-19T16:44:41.021Z,18.90
2018-12-19T16:47:08.456Z,17.87
2018-12-19T16:49:35.902Z,19.17
2018-12-19T16:52:03.481Z,18.77
2018-12-19T16:54:30.938Z,18.57
2018-12-19T16:56:58.465Z,14.98
2018-12-19T16:59:25.896Z,20.87
2018-12-19T17:01:53.380Z,18.40
2018-12-19T17:04:20.825Z,17.13
2018-12-19T17:06:48.261Z,18.77
2018-12-19T17:09:15.710Z,19.73
2018-12-19T17:11:43.148Z,20.70
2018-12-19T17:14:10.584Z,20.82
2018-12-19T17:16:38.094Z,20.07
2018-12-19T17:19:05.540Z,19.52
2018-12-19T17:21:32.988Z,20.53
2018-12-19T17:24:00.604Z,21.02
2018-12-19T17:26:28.058Z,21.80
2018-12-19T17:28:55.492Z,21.00
2018-12-19T17:31:22.989Z,22.13
2018-12-19T17:33:50.491Z,21.00
2018-12-19T17:36:17.929Z,19.53
2018-12-19T17:38:46.253Z,20.80
2018-12-19T17:41:13.696Z,19.30
2018-12-19T17:43:41.136Z,20.87
2018-12-19T17:46:08.568Z,20.73
2018-12-19T17:48:36.017Z,19.65
2018-12-19T17:51:03.464Z,20.27
2018-12-19T17:53:30.904Z,21.42
2018-12-19T17:55:58.370Z,21.80
2018-12-19T17:58:25.813Z,20.77
2018-12-19T18:00:53.300Z,22.43
2018-12-19T18:03:20.755Z,23.12
2018-12-19T18:05:48.192Z,20.57
2018-12-19T18:08:15.725Z,21.82
2018-12-19T18:10:43.163Z,24.00
2018-12-19T18:13:10.614Z,23.07
2018-12-19T18:15:38.054Z,25.27
2018-12-19T18:18:05.504Z,23.42
2018-12-19T18:20:32.933Z,24.00
2018-12-19T18:23:01.090Z,24.77
2018-12-19T18:25:28.525Z,23.10
2018-12-19T18:27:55.981Z,22.70
2018-12-19T18:30:23.412Z,23.27
2018-12-19T18:32:50.865Z,21.77
2018-12-19T18:35:18.297Z,23.10
2018-12-19T18:37:45.832Z,25.90
2018-12-19T18:40:13.265Z,23.87
2018-12-19T18:42:40.722Z,23.97
2018-12-19T18:45:11.896Z,24.70
2018-12-19T18:47:37.562Z,23.67
2018-12-19T18:50:05.010Z,22.63
2018-12-19T18:52:32.460Z,24.13
2018-12-19T18:54:59.886Z,20.25
2018-12-19T18:57:27.332Z,23.77
2018-12-19T18:59:54.816Z,23.10
2018-12-19T19:02:22.294Z,23.37
2018-12-19T19:04:49.769Z,21.97
2018-12-19T19:07:17.302Z,23.33
2018-12-19T19:09:44.773Z,25.30
2018-12-19T19:12:12.217Z,25.30
2018-12-19T19:14:39.700Z,25.48
2018-12-19T19:17:07.153Z,24.43
2018-12-19T19:19:34.602Z,24.07
2018-12-19T19:22:02.038Z,22.50
2018-12-19T19:24:29.482Z,22.75
2018-12-19T19:26:56.930Z,24.03
2018-12-19T19:29:24.416Z,25.62
2018-12-19T19:31:51.855Z,24.77
2018-12-19T19:34:24.880Z,23.73
2018-12-19T19:36:48.722Z,24.50
2018-12-19T19:39:16.417Z,24.37
2018-12-19T19:41:43.920Z,24.33
2018-12-19T19:44:11.364Z,25.27
2018-12-19T19:46:38.809Z,24.90
2018-12-19T19:49:06.248Z,24.00
2018-12-19T19:51:33.707Z,24.90
2018-12-19T19:54:01.156Z,23.17
2018-12-19T19:56:28.609Z,22.98
2018-12-19T19:58:56.060Z,21.97
2018-12-19T20:01:23.503Z,23.65
2018-12-19T20:03:50.932Z,23.40
2018-12-19T20:06:18.380Z,22.52
2018-12-19T20:08:45.824Z,23.00
2018-12-19T20:11:13.252Z,23.38
2018-12-19T20:13:40.698Z,23.63
2018-12-19T20:16:08.148Z,21.70
2018-12-19T20:18:35.644Z,23.57
2018-12-19T20:21:03.083Z,23.90
2018-12-19T20:23:30.523Z,22.97
2018-12-19T20:25:57.966Z,21.57
2018-12-19T20:28:25.408Z,23.13
2018-12-19T20:30:52.845Z,22.87
2018-12-19T20:33:20.284Z,22.90
2018-12-19T20:35:47.726Z,22.37
2018-12-19T20:38:15.176Z,23.87
2018-12-19T20:40:42.617Z,24.25
2018-12-19T20:43:10.053Z,23.80
2018-12-19T20:45:37.497Z,23.62
2018-12-19T20:48:04.981Z,24.17
2018-12-19T20:50:32.425Z,24.87
2018-12-19T20:52:59.896Z,25.27
2018-12-19T20:55:27.422Z,24.25
2018-12-19T20:57:54.919Z,23.60
2018-12-19T21:00:22.440Z,23.77
2018-12-19T21:02:49.884Z,24.13
2018-12-19T21:05:17.957Z,24.90
2018-12-19T21:07:45.400Z,23.30
2018-12-19T21:10:12.857Z,23.40
2018-12-19T21:12:40.300Z,25.27
2018-12-19T21:15:07.749Z,24.97
2018-12-19T21:17:40.567Z,23.20
2018-12-19T21:20:07.997Z,23.80
2018-12-19T21:22:35.456Z,23.70
2018-12-19T21:25:02.936Z,24.70
2018-12-19T21:27:30.376Z,24.02
2018-12-19T21:29:57.816Z,22.87
2018-12-19T21:32:25.243Z,24.45
2018-12-19T21:34:52.717Z,23.37
2018-12-19T21:37:20.148Z,24.12
2018-12-19T21:39:47.594Z,24.00
2018-12-19T21:42:15.029Z,21.80
2018-12-19T21:44:42.461Z,23.40
2018-12-19T21:47:09.907Z,23.45
2018-12-19T21:49:37.416Z,24.30
2018-12-19T21:52:04.859Z,23.95
2018-12-19T21:54:32.296Z,24.83
2018-12-19T21:56:59.743Z,22.95
2018-12-19T21:59:27.174Z,22.90
2018-12-19T22:01:54.686Z,24.75
2018-12-19T22:04:22.132Z,23.80
2018-12-19T22:06:49.665Z,23.90
2018-12-19T22:09:17.329Z,22.90
2018-12-19T22:11:44.769Z,24.63
2018-12-19T22:14:12.220Z,23.57
2018-12-19T22:16:45.156Z,22.37
2018-12-19T22:19:12.595Z,23.97
2018-12-19T22:21:40.029Z,23.85
2018-12-19T22:24:07.474Z,23.60
2018-12-19T22:26:34.979Z,23.30
2018-12-19T22:29:02.507Z,22.17
2018-12-19T22:31:29.962Z,23.30
2018-12-19T22:33:57.488Z,23.40
2018-12-19T22:36:25.023Z,23.45
2018-12-19T22:38:52.457Z,21.90
2018-12-19T22:41:19.886Z,24.32
2018-12-19T22:43:47.351Z,23.30
2018-12-19T22:46:14.857Z,22.73
2018-12-19T22:48:42.408Z,22.70
2018-12-19T22:51:09.936Z,22.70
2018-12-19T22:53:37.526Z,23.80
2018-12-19T22:56:05.903Z,24.37
2018-12-19T22:58:33.391Z,23.30
2018-12-19T23:01:06.351Z,24.17
2018-12-19T23:03:39.255Z,23.73
2018-12-19T23:06:06.843Z,24.00
2018-12-19T23:08:34.370Z,24.60
2018-12-19T23:11:01.893Z,26.07
2018-12-19T23:13:29.418Z,25.08
2018-12-19T23:15:56.918Z,25.13
2018-12-19T23:18:27.418Z,26.10
2018-12-19T23:20:54.912Z,25.87
2018-12-19T23:23:23.238Z,25.17
2018-12-19T23:25:50.920Z,27.13
2018-12-19T23:28:18.471Z,26.87
2018-12-19T23:30:46.075Z,27.37
2018-12-19T23:33:13.633Z,26.47
2018-12-19T23:35:41.076Z,24.85
2018-12-19T23:38:08.578Z,28.23
2018-12-19T23:40:36.029Z,27.42
2018-12-19T23:43:03.541Z,24.27
2018-12-19T23:45:30.979Z,28.47
2018-12-19T23:47:58.430Z,30.87
2018-12-19T23:50:25.936Z,28.90
2018-12-19T23:52:53.368Z,30.43
2018-12-19T23:55:20.839Z,30.90
2018-12-19T23:57:48.465Z,31.93
